CKK259 WIII-VTBD
Flight info
| Callsign | CKK259 |
|---|---|
| Flight time | 2h 54m |
| Altitude | 34000 |
| Route | DOLTA A585 GUSKO G579 SJ B469 VPK M751 GUTSO SABAI3A |
| Aircraft | B77L/H-SDE1E2E3FGHIJ2J3J4J5M1RWXY/LB1D1 |
Departure
| Time | 2026-05-05 14:50 |
|---|---|
| Airport | Soekarno-Hatta International Airport (WIII) |
Arrival
| Time | 2026-05-05 17:45 |
|---|---|
| Airport | Don Mueang International Airport (VTBD) |
| Time | Latitude | Longitude | Altitude | Speed | Heading |
|---|---|---|---|---|---|
| 2026-05-05 14:43 | -6.13275 | 106.66326 | 43 ft | 10 kts | 68° |
| 2026-05-05 14:43 | -6.13244 | 106.66409 | 43 ft | 15 kts | 68° |
| 2026-05-05 14:43 | -6.13200 | 106.66519 | 43 ft | 18 kts | 68° |
| 2026-05-05 14:43 | -6.13158 | 106.66621 | 43 ft | 15 kts | 68° |
| 2026-05-05 14:44 | -6.13118 | 106.66720 | 43 ft | 15 kts | 69° |
| 2026-05-05 14:44 | -6.13080 | 106.66820 | 43 ft | 15 kts | 69° |
| 2026-05-05 14:44 | -6.13040 | 106.66918 | 43 ft | 15 kts | 68° |
| 2026-05-05 14:44 | -6.13000 | 106.67019 | 43 ft | 15 kts | 68° |
| 2026-05-05 14:45 | -6.12960 | 106.67118 | 41 ft | 15 kts | 68° |
| 2026-05-05 14:45 | -6.12921 | 106.67218 | 43 ft | 15 kts | 68° |
| 2026-05-05 14:45 | -6.12882 | 106.67316 | 43 ft | 15 kts | 68° |
| 2026-05-05 14:45 | -6.12865 | 106.67375 | 43 ft | 7 kts | 89° |
| 2026-05-05 14:46 | -6.12875 | 106.67400 | 43 ft | 0 kts | 133° |
| 2026-05-05 14:47 | -6.12890 | 106.67414 | 43 ft | 13 kts | 140° |
| 2026-05-05 14:47 | -6.12951 | 106.67437 | 44 ft | 0 kts | 189° |
| 2026-05-05 14:47 | -6.12953 | 106.67436 | 44 ft | 3 kts | 189° |
| 2026-05-05 14:48 | -6.12981 | 106.67422 | 44 ft | 5 kts | 206° |
| 2026-05-05 14:48 | -6.13011 | 106.67407 | 44 ft | 5 kts | 206° |
| 2026-05-05 14:48 | -6.13039 | 106.67390 | 43 ft | 5 kts | 221° |
| 2026-05-05 14:48 | -6.13058 | 106.67363 | 44 ft | 5 kts | 240° |
| 2026-05-05 14:49 | -6.13064 | 106.67350 | 44 ft | 0 kts | 249° |
| 2026-05-05 14:49 | -6.13067 | 106.67342 | 44 ft | 8 kts | 249° |
| 2026-05-05 14:49 | -6.13155 | 106.67123 | 44 ft | 67 kts | 247° |
| 2026-05-05 14:49 | -6.13411 | 106.66482 | 47 ft | 128 kts | 248° |
| 2026-05-05 14:50 | -6.13811 | 106.65488 | 45 ft | 176 kts | 247° |
| 2026-05-05 14:50 | -6.14299 | 106.64239 | 183 ft | 199 kts | 248° |
| 2026-05-05 14:50 | -6.14768 | 106.62974 | 847 ft | 191 kts | 248° |
| 2026-05-05 14:50 | -6.15245 | 106.61731 | 1355 ft | 196 kts | 248° |
| 2026-05-05 14:51 | -6.15743 | 106.60422 | 1856 ft | 199 kts | 250° |
| 2026-05-05 14:51 | -6.16199 | 106.59111 | 2335 ft | 204 kts | 250° |
| 2026-05-05 14:51 | -6.16696 | 106.57731 | 2683 ft | 215 kts | 248° |
| 2026-05-05 14:51 | -6.17263 | 106.56294 | 2886 ft | 238 kts | 245° |
| 2026-05-05 14:52 | -6.18011 | 106.54675 | 2676 ft | 267 kts | 244° |
| 2026-05-05 14:52 | -6.18787 | 106.52939 | 3137 ft | 276 kts | 245° |
| 2026-05-05 14:52 | -6.19537 | 106.51158 | 3854 ft | 278 kts | 246° |
| 2026-05-05 14:52 | -6.20274 | 106.49345 | 4576 ft | 281 kts | 247° |
| 2026-05-05 14:53 | -6.21008 | 106.47516 | 4980 ft | 284 kts | 247° |
| 2026-05-05 14:53 | -6.21724 | 106.45658 | 4987 ft | 285 kts | 253° |
| 2026-05-05 14:53 | -6.21864 | 106.43690 | 5003 ft | 286 kts | 283° |
| 2026-05-05 14:53 | -6.21016 | 106.41909 | 5060 ft | 286 kts | 314° |
| 2026-05-05 14:54 | -6.19459 | 106.40717 | 5652 ft | 283 kts | 335° |
| 2026-05-05 14:54 | -6.17622 | 106.40006 | 6299 ft | 284 kts | 345° |
| 2026-05-05 14:54 | -6.15710 | 106.39460 | 6843 ft | 287 kts | 346° |
| 2026-05-05 14:54 | -6.13770 | 106.38923 | 7016 ft | 290 kts | 346° |
| 2026-05-05 14:55 | -6.11829 | 106.38368 | 7006 ft | 290 kts | 346° |
| 2026-05-05 14:55 | -6.09922 | 106.37808 | 7257 ft | 289 kts | 345° |
| 2026-05-05 14:55 | -6.07985 | 106.37233 | 7949 ft | 290 kts | 345° |
| 2026-05-05 14:55 | -6.06043 | 106.36656 | 8594 ft | 293 kts | 345° |
| 2026-05-05 14:56 | -6.04069 | 106.36070 | 9219 ft | 296 kts | 345° |
| 2026-05-05 14:56 | -6.02086 | 106.35481 | 9872 ft | 299 kts | 345° |
| 2026-05-05 14:56 | -6.00069 | 106.34882 | 10391 ft | 306 kts | 345° |
| 2026-05-05 14:56 | -5.97956 | 106.34255 | 10550 ft | 328 kts | 345° |
| 2026-05-05 14:57 | -5.95694 | 106.33584 | 10722 ft | 349 kts | 345° |
| 2026-05-05 14:57 | -5.93292 | 106.32870 | 10873 ft | 371 kts | 345° |
| 2026-05-05 14:57 | -5.90768 | 106.32118 | 11256 ft | 384 kts | 345° |
| 2026-05-05 14:57 | -5.88212 | 106.31357 | 11817 ft | 391 kts | 345° |
| 2026-05-05 14:58 | -5.85584 | 106.30573 | 12540 ft | 395 kts | 345° |
| 2026-05-05 14:58 | -5.82936 | 106.29784 | 13314 ft | 398 kts | 345° |
| 2026-05-05 14:58 | -5.80267 | 106.28990 | 14009 ft | 402 kts | 345° |
| 2026-05-05 14:58 | -5.77575 | 106.28189 | 14617 ft | 406 kts | 345° |
| 2026-05-05 14:59 | -5.74845 | 106.27377 | 15214 ft | 410 kts | 345° |
| 2026-05-05 14:59 | -5.72161 | 106.26397 | 15680 ft | 414 kts | 336° |
| 2026-05-05 14:59 | -5.69613 | 106.25047 | 16181 ft | 421 kts | 331° |
| 2026-05-05 14:59 | -5.67084 | 106.23528 | 16788 ft | 424 kts | 330° |
| 2026-05-05 15:00 | -5.64548 | 106.21979 | 17407 ft | 427 kts | 330° |
| 2026-05-05 15:00 | -5.62847 | 106.20957 | 17790 ft | 430 kts | 330° |
| 2026-05-05 15:00 | -5.59375 | 106.18922 | 18494 ft | 435 kts | 331° |
| 2026-05-05 15:00 | -5.56737 | 106.17413 | 18977 ft | 438 kts | 332° |
| 2026-05-05 15:01 | -5.54053 | 106.15893 | 19463 ft | 441 kts | 332° |
| 2026-05-05 15:01 | -5.51369 | 106.14380 | 19975 ft | 444 kts | 332° |
| 2026-05-05 15:01 | -5.48702 | 106.12877 | 20431 ft | 447 kts | 332° |
| 2026-05-05 15:01 | -5.45984 | 106.11345 | 20867 ft | 450 kts | 332° |
| 2026-05-05 15:02 | -5.43245 | 106.09799 | 20909 ft | 453 kts | 332° |
| 2026-05-05 15:02 | -5.40489 | 106.08243 | 20922 ft | 452 kts | 332° |
| 2026-05-05 15:02 | -5.37736 | 106.06689 | 20919 ft | 452 kts | 332° |
| 2026-05-05 15:02 | -5.34992 | 106.05141 | 20916 ft | 451 kts | 332° |
| 2026-05-05 15:03 | -5.32279 | 106.03610 | 21155 ft | 455 kts | 332° |
| 2026-05-05 15:03 | -5.29479 | 106.02030 | 21663 ft | 457 kts | 332° |
| 2026-05-05 15:03 | -5.26727 | 106.00476 | 22153 ft | 459 kts | 332° |
| 2026-05-05 15:03 | -5.23922 | 105.98893 | 22596 ft | 462 kts | 332° |
| 2026-05-05 15:04 | -5.21106 | 105.97303 | 23002 ft | 465 kts | 332° |
| 2026-05-05 15:04 | -5.18311 | 105.95725 | 23393 ft | 469 kts | 332° |
| 2026-05-05 15:04 | -5.15429 | 105.94098 | 23746 ft | 471 kts | 332° |
| 2026-05-05 15:04 | -5.12561 | 105.92480 | 24107 ft | 473 kts | 332° |
| 2026-05-05 15:05 | -5.06805 | 105.89210 | 24836 ft | 477 kts | 332° |
| 2026-05-05 15:05 | -5.03954 | 105.87583 | 25175 ft | 479 kts | 332° |
| 2026-05-05 15:05 | -5.01018 | 105.85907 | 25519 ft | 481 kts | 332° |
| 2026-05-05 15:06 | -4.98140 | 105.84265 | 25848 ft | 483 kts | 332° |
| 2026-05-05 15:06 | -4.95213 | 105.82594 | 26189 ft | 485 kts | 332° |
| 2026-05-05 15:06 | -4.92252 | 105.80906 | 26534 ft | 487 kts | 332° |
| 2026-05-05 15:06 | -4.90283 | 105.79783 | 26754 ft | 489 kts | 332° |
| 2026-05-05 15:07 | -4.87319 | 105.78094 | 27068 ft | 491 kts | 332° |
| 2026-05-05 15:07 | -4.84344 | 105.76399 | 27389 ft | 493 kts | 332° |
| 2026-05-05 15:07 | -4.80387 | 105.74145 | 27800 ft | 496 kts | 332° |
| 2026-05-05 15:07 | -4.77384 | 105.72434 | 28095 ft | 498 kts | 332° |
| 2026-05-05 15:08 | -4.74367 | 105.70716 | 28406 ft | 500 kts | 332° |
| 2026-05-05 15:08 | -4.72310 | 105.69544 | 28604 ft | 501 kts | 332° |
| 2026-05-05 15:08 | -4.68280 | 105.67249 | 28976 ft | 504 kts | 332° |
| 2026-05-05 15:08 | -4.66265 | 105.66101 | 29155 ft | 505 kts | 332° |
| 2026-05-05 15:09 | -4.63204 | 105.64358 | 29431 ft | 506 kts | 332° |
| 2026-05-05 15:09 | -4.60141 | 105.62614 | 29765 ft | 507 kts | 332° |
| 2026-05-05 15:09 | -4.57046 | 105.60934 | 30124 ft | 505 kts | 335° |
| 2026-05-05 15:09 | -4.53810 | 105.59594 | 30477 ft | 501 kts | 342° |
| 2026-05-05 15:10 | -4.50487 | 105.58491 | 30878 ft | 499 kts | 343° |
| 2026-05-05 15:10 | -4.47199 | 105.57392 | 31243 ft | 498 kts | 342° |
| 2026-05-05 15:10 | -4.43918 | 105.56278 | 31590 ft | 497 kts | 342° |
| 2026-05-05 15:10 | -4.40652 | 105.55155 | 31930 ft | 496 kts | 342° |
| 2026-05-05 15:11 | -4.37389 | 105.54022 | 32282 ft | 495 kts | 342° |
| 2026-05-05 15:11 | -4.34136 | 105.52888 | 32644 ft | 494 kts | 342° |
| 2026-05-05 15:11 | -4.30932 | 105.51768 | 32981 ft | 493 kts | 342° |
| 2026-05-05 15:11 | -4.27653 | 105.50622 | 33340 ft | 492 kts | 342° |
| 2026-05-05 15:12 | -4.24465 | 105.49508 | 33696 ft | 491 kts | 342° |
| 2026-05-05 15:12 | -4.21230 | 105.48378 | 33837 ft | 493 kts | 342° |
| 2026-05-05 15:12 | -4.17981 | 105.47245 | 33875 ft | 492 kts | 342° |
| 2026-05-05 15:13 | -4.11539 | 105.44998 | 33893 ft | 491 kts | 342° |
| 2026-05-05 15:13 | -4.05096 | 105.42752 | 33899 ft | 490 kts | 342° |
| 2026-05-05 15:14 | -3.98652 | 105.40506 | 33902 ft | 490 kts | 342° |
| 2026-05-05 15:14 | -3.92211 | 105.38262 | 33901 ft | 490 kts | 342° |
| 2026-05-05 15:15 | -3.85758 | 105.36014 | 33899 ft | 490 kts | 342° |
| 2026-05-05 15:15 | -3.79317 | 105.33770 | 33898 ft | 490 kts | 342° |
| 2026-05-05 15:16 | -3.72873 | 105.31525 | 33901 ft | 490 kts | 342° |
| 2026-05-05 15:16 | -3.66428 | 105.29281 | 33897 ft | 490 kts | 342° |
| 2026-05-05 15:17 | -3.60016 | 105.27048 | 33901 ft | 491 kts | 342° |
| 2026-05-05 15:17 | -3.53562 | 105.24801 | 33901 ft | 491 kts | 342° |
| 2026-05-05 15:18 | -3.47115 | 105.22556 | 33900 ft | 491 kts | 342° |
| 2026-05-05 15:18 | -3.40661 | 105.20310 | 33895 ft | 491 kts | 342° |
| 2026-05-05 15:19 | -3.34210 | 105.18065 | 33900 ft | 491 kts | 342° |
| 2026-05-05 15:19 | -3.27728 | 105.15809 | 33902 ft | 491 kts | 342° |
| 2026-05-05 15:20 | -3.21270 | 105.13563 | 33900 ft | 491 kts | 342° |
| 2026-05-05 15:20 | -3.14855 | 105.11331 | 33900 ft | 491 kts | 342° |
| 2026-05-05 15:21 | -3.08385 | 105.09080 | 33898 ft | 491 kts | 342° |
| 2026-05-05 15:21 | -3.01936 | 105.06838 | 33902 ft | 491 kts | 342° |
| 2026-05-05 15:22 | -2.95479 | 105.04592 | 33904 ft | 491 kts | 342° |
| 2026-05-05 15:22 | -2.89021 | 105.02347 | 33907 ft | 491 kts | 342° |
| 2026-05-05 15:23 | -2.82607 | 105.00117 | 33900 ft | 491 kts | 342° |
| 2026-05-05 15:23 | -2.76147 | 104.97872 | 33905 ft | 491 kts | 342° |
| 2026-05-05 15:24 | -2.69695 | 104.95629 | 33911 ft | 492 kts | 342° |
| 2026-05-05 15:24 | -2.63216 | 104.93378 | 33898 ft | 492 kts | 342° |
| 2026-05-05 15:25 | -2.56728 | 104.91123 | 33905 ft | 492 kts | 342° |
| 2026-05-05 15:25 | -2.50235 | 104.88867 | 33906 ft | 493 kts | 342° |
| 2026-05-05 15:26 | -2.43755 | 104.86616 | 33904 ft | 494 kts | 342° |
| 2026-05-05 15:26 | -2.37259 | 104.84359 | 33900 ft | 494 kts | 342° |
| 2026-05-05 15:27 | -2.30758 | 104.82101 | 33905 ft | 494 kts | 342° |
| 2026-05-05 15:27 | -2.24305 | 104.79860 | 33908 ft | 495 kts | 342° |
| 2026-05-05 15:28 | -2.17777 | 104.77593 | 33906 ft | 495 kts | 342° |
| 2026-05-05 15:28 | -2.11258 | 104.75329 | 33907 ft | 495 kts | 342° |
| 2026-05-05 15:29 | -2.04775 | 104.73078 | 33909 ft | 496 kts | 342° |
| 2026-05-05 15:29 | -1.98249 | 104.70812 | 33905 ft | 496 kts | 342° |
| 2026-05-05 15:30 | -1.91724 | 104.68547 | 33909 ft | 496 kts | 342° |
| 2026-05-05 15:30 | -1.85196 | 104.66281 | 33909 ft | 496 kts | 342° |
| 2026-05-05 15:31 | -1.78710 | 104.64029 | 33906 ft | 496 kts | 342° |
| 2026-05-05 15:31 | -1.72191 | 104.61766 | 33907 ft | 496 kts | 342° |
| 2026-05-05 15:32 | -1.65669 | 104.59503 | 33907 ft | 496 kts | 342° |
| 2026-05-05 15:32 | -1.59134 | 104.57235 | 33905 ft | 496 kts | 342° |
| 2026-05-05 15:33 | -1.52612 | 104.54972 | 33907 ft | 496 kts | 342° |
| 2026-05-05 15:33 | -1.46095 | 104.52711 | 33908 ft | 496 kts | 342° |
| 2026-05-05 15:34 | -1.39568 | 104.50446 | 33907 ft | 496 kts | 342° |
| 2026-05-05 15:34 | -1.33047 | 104.48183 | 33907 ft | 496 kts | 342° |
| 2026-05-05 15:35 | -1.26509 | 104.45915 | 33903 ft | 496 kts | 342° |
| 2026-05-05 15:35 | -1.20026 | 104.43666 | 33906 ft | 496 kts | 342° |
| 2026-05-05 15:36 | -1.13496 | 104.41401 | 33907 ft | 496 kts | 342° |
| 2026-05-05 15:36 | -1.06953 | 104.39131 | 33909 ft | 497 kts | 342° |
| 2026-05-05 15:37 | -1.00421 | 104.36865 | 33906 ft | 497 kts | 342° |
| 2026-05-05 15:37 | -0.93927 | 104.34614 | 33907 ft | 496 kts | 342° |
| 2026-05-05 15:38 | -0.87398 | 104.32349 | 33904 ft | 496 kts | 342° |
| 2026-05-05 15:38 | -0.80868 | 104.30084 | 33909 ft | 496 kts | 342° |
| 2026-05-05 15:39 | -0.74339 | 104.27819 | 33906 ft | 497 kts | 342° |
| 2026-05-05 15:39 | -0.67804 | 104.25552 | 33907 ft | 497 kts | 342° |
| 2026-05-05 15:40 | -0.61298 | 104.23296 | 33907 ft | 497 kts | 342° |
| 2026-05-05 15:40 | -0.54684 | 104.21202 | 33900 ft | 496 kts | 349° |
| 2026-05-05 15:41 | -0.47954 | 104.19907 | 33906 ft | 496 kts | 351° |
| 2026-05-05 15:41 | -0.41171 | 104.18608 | 33905 ft | 496 kts | 350° |
| 2026-05-05 15:42 | -0.34388 | 104.17272 | 33905 ft | 496 kts | 350° |
| 2026-05-05 15:42 | -0.27613 | 104.15922 | 33906 ft | 496 kts | 350° |
| 2026-05-05 15:43 | -0.23323 | 104.15067 | 33911 ft | 496 kts | 350° |
| 2026-05-05 15:43 | -0.16574 | 104.13724 | 33907 ft | 497 kts | 350° |
| 2026-05-05 15:44 | -0.09788 | 104.12375 | 33909 ft | 497 kts | 350° |
| 2026-05-05 15:44 | -0.02995 | 104.11024 | 33908 ft | 497 kts | 350° |
| 2026-05-05 15:45 | 0.03794 | 104.09675 | 33906 ft | 497 kts | 350° |
| 2026-05-05 15:45 | 0.10545 | 104.08213 | 33914 ft | 495 kts | 349° |
| 2026-05-05 15:46 | 0.17320 | 104.06935 | 33904 ft | 499 kts | 351° |
| 2026-05-05 15:46 | 0.23827 | 104.05703 | 33897 ft | 498 kts | 350° |
| 2026-05-05 15:47 | 0.26796 | 104.05110 | 33896 ft | 497 kts | 350° |
| 2026-05-05 15:47 | 0.33583 | 104.03761 | 33897 ft | 497 kts | 350° |
| 2026-05-05 15:48 | 0.40381 | 104.02428 | 33894 ft | 497 kts | 350° |
| 2026-05-05 15:48 | 0.47137 | 104.01102 | 33896 ft | 497 kts | 350° |
| 2026-05-05 15:49 | 0.53939 | 103.99765 | 33895 ft | 497 kts | 350° |
| 2026-05-05 15:49 | 0.60731 | 103.98420 | 33890 ft | 497 kts | 350° |
| 2026-05-05 15:50 | 0.67525 | 103.97056 | 33888 ft | 498 kts | 350° |
| 2026-05-05 15:50 | 0.74310 | 103.95694 | 33889 ft | 498 kts | 349° |
| 2026-05-05 15:51 | 0.81099 | 103.94250 | 33885 ft | 498 kts | 349° |
| 2026-05-05 15:51 | 0.87839 | 103.92796 | 33891 ft | 498 kts | 349° |
| 2026-05-05 15:52 | 0.94608 | 103.91351 | 33893 ft | 498 kts | 349° |
| 2026-05-05 15:52 | 1.00753 | 103.90044 | 33897 ft | 498 kts | 349° |
| 2026-05-05 15:53 | 1.06391 | 103.88861 | 33895 ft | 498 kts | 349° |
| 2026-05-05 15:53 | 1.13176 | 103.87440 | 33897 ft | 498 kts | 349° |
| 2026-05-05 15:54 | 1.19709 | 103.86081 | 33900 ft | 496 kts | 351° |
| 2026-05-05 15:54 | 1.23134 | 103.85755 | 33897 ft | 495 kts | 2° |
| 2026-05-05 15:54 | 1.26481 | 103.86002 | 33914 ft | 495 kts | 10° |
| 2026-05-05 15:55 | 1.32819 | 103.88281 | 33912 ft | 490 kts | 38° |
| 2026-05-05 15:55 | 1.38458 | 103.92059 | 33914 ft | 490 kts | 24° |
| 2026-05-05 15:55 | 1.41742 | 103.93060 | 33885 ft | 496 kts | 10° |
| 2026-05-05 15:56 | 1.45160 | 103.93283 | 33897 ft | 498 kts | 359° |
| 2026-05-05 15:56 | 1.52060 | 103.92636 | 33891 ft | 497 kts | 357° |
| 2026-05-05 15:57 | 1.58963 | 103.92287 | 33887 ft | 497 kts | 358° |
| 2026-05-05 15:57 | 1.65879 | 103.91863 | 33889 ft | 497 kts | 357° |
| 2026-05-05 15:58 | 1.72752 | 103.91387 | 33889 ft | 497 kts | 357° |
| 2026-05-05 15:58 | 1.79660 | 103.91195 | 33893 ft | 496 kts | 3° |
| 2026-05-05 15:59 | 1.86571 | 103.91524 | 33892 ft | 497 kts | 3° |
| 2026-05-05 15:59 | 1.93447 | 103.91648 | 33892 ft | 498 kts | 358° |
| 2026-05-05 16:00 | 2.00352 | 103.90958 | 33904 ft | 498 kts | 355° |
| 2026-05-05 16:00 | 2.07254 | 103.90246 | 33892 ft | 499 kts | 355° |
| 2026-05-05 16:01 | 2.14165 | 103.89575 | 33893 ft | 499 kts | 355° |
| 2026-05-05 16:01 | 2.21071 | 103.88912 | 33891 ft | 498 kts | 355° |
| 2026-05-05 16:02 | 2.27949 | 103.88249 | 33882 ft | 499 kts | 355° |
| 2026-05-05 16:02 | 2.34864 | 103.87549 | 33886 ft | 499 kts | 353° |
| 2026-05-05 16:03 | 2.41621 | 103.85873 | 33884 ft | 501 kts | 341° |
| 2026-05-05 16:03 | 2.47965 | 103.83086 | 33888 ft | 502 kts | 335° |
| 2026-05-05 16:04 | 2.54312 | 103.80117 | 33891 ft | 502 kts | 336° |
| 2026-05-05 16:04 | 2.60657 | 103.77205 | 33899 ft | 502 kts | 336° |
| 2026-05-05 16:05 | 2.67021 | 103.74299 | 33903 ft | 502 kts | 336° |
| 2026-05-05 16:05 | 2.73343 | 103.71409 | 33906 ft | 502 kts | 336° |
| 2026-05-05 16:06 | 2.79730 | 103.68552 | 33902 ft | 502 kts | 336° |
| 2026-05-05 16:06 | 2.86122 | 103.65711 | 33905 ft | 502 kts | 336° |
| 2026-05-05 16:07 | 2.92501 | 103.62863 | 33904 ft | 502 kts | 336° |
| 2026-05-05 16:07 | 2.98879 | 103.60018 | 33904 ft | 502 kts | 336° |
| 2026-05-05 16:08 | 3.05279 | 103.57164 | 33895 ft | 502 kts | 336° |
| 2026-05-05 16:08 | 3.11622 | 103.54332 | 33891 ft | 502 kts | 336° |
| 2026-05-05 16:09 | 3.18001 | 103.51482 | 33888 ft | 502 kts | 336° |
| 2026-05-05 16:09 | 3.24374 | 103.48609 | 33885 ft | 502 kts | 336° |
| 2026-05-05 16:10 | 3.30749 | 103.45731 | 33881 ft | 502 kts | 336° |
| 2026-05-05 16:10 | 3.37124 | 103.42857 | 33877 ft | 502 kts | 336° |
| 2026-05-05 16:11 | 3.43540 | 103.40086 | 33873 ft | 502 kts | 339° |
| 2026-05-05 16:12 | 3.56570 | 103.35024 | 33866 ft | 502 kts | 339° |
| 2026-05-05 16:13 | 3.72727 | 103.28616 | 33857 ft | 502 kts | 339° |
| 2026-05-05 16:13 | 3.79223 | 103.26030 | 33857 ft | 502 kts | 339° |
| 2026-05-05 16:14 | 3.92194 | 103.20867 | 33860 ft | 501 kts | 339° |
| 2026-05-05 16:15 | 4.05150 | 103.15711 | 33869 ft | 501 kts | 339° |
| 2026-05-05 16:16 | 4.18070 | 103.10564 | 33877 ft | 500 kts | 339° |
| 2026-05-05 16:17 | 4.27792 | 103.06692 | 33881 ft | 500 kts | 339° |
| 2026-05-05 16:18 | 4.37455 | 103.02842 | 33883 ft | 499 kts | 339° |
| 2026-05-05 16:19 | 4.47140 | 102.98982 | 33892 ft | 499 kts | 339° |
| 2026-05-05 16:19 | 4.56829 | 102.95119 | 33899 ft | 500 kts | 339° |
| 2026-05-05 16:20 | 4.69741 | 102.89969 | 33897 ft | 499 kts | 339° |
| 2026-05-05 16:22 | 4.85856 | 102.83538 | 33894 ft | 499 kts | 339° |
| 2026-05-05 16:23 | 4.98754 | 102.78425 | 33898 ft | 499 kts | 339° |
| 2026-05-05 16:23 | 5.08452 | 102.74581 | 33895 ft | 499 kts | 339° |
| 2026-05-05 16:24 | 5.14910 | 102.72019 | 33897 ft | 499 kts | 339° |
| 2026-05-05 16:25 | 5.24552 | 102.68173 | 33899 ft | 499 kts | 338° |
| 2026-05-05 16:25 | 5.34197 | 102.64245 | 33892 ft | 499 kts | 338° |
| 2026-05-05 16:26 | 5.47124 | 102.59110 | 33894 ft | 499 kts | 339° |
| 2026-05-05 16:27 | 5.53592 | 102.56544 | 33891 ft | 499 kts | 339° |
| 2026-05-05 16:27 | 5.60016 | 102.53980 | 33888 ft | 499 kts | 339° |
| 2026-05-05 16:28 | 5.66477 | 102.51389 | 33893 ft | 500 kts | 339° |
| 2026-05-05 16:28 | 5.72938 | 102.48797 | 33887 ft | 500 kts | 339° |
| 2026-05-05 16:29 | 5.79398 | 102.46207 | 33885 ft | 500 kts | 339° |
| 2026-05-05 16:29 | 5.85827 | 102.43630 | 33885 ft | 500 kts | 339° |
| 2026-05-05 16:30 | 5.92290 | 102.41037 | 33887 ft | 500 kts | 339° |
| 2026-05-05 16:30 | 5.98761 | 102.38442 | 33884 ft | 500 kts | 339° |
| 2026-05-05 16:31 | 6.05217 | 102.35851 | 33884 ft | 500 kts | 339° |
| 2026-05-05 16:31 | 6.11680 | 102.33256 | 33885 ft | 500 kts | 339° |
| 2026-05-05 16:32 | 6.18135 | 102.30756 | 33880 ft | 499 kts | 343° |
| 2026-05-05 16:32 | 6.24813 | 102.28856 | 33887 ft | 499 kts | 345° |
| 2026-05-05 16:33 | 6.31499 | 102.26927 | 33884 ft | 499 kts | 344° |
| 2026-05-05 16:33 | 6.38152 | 102.24914 | 33884 ft | 499 kts | 344° |
| 2026-05-05 16:34 | 6.44795 | 102.22893 | 33888 ft | 499 kts | 344° |
| 2026-05-05 16:34 | 6.51440 | 102.20881 | 33885 ft | 499 kts | 344° |
| 2026-05-05 16:35 | 6.58051 | 102.18885 | 33889 ft | 499 kts | 344° |
| 2026-05-05 16:35 | 6.64697 | 102.16879 | 33889 ft | 499 kts | 344° |
| 2026-05-05 16:36 | 6.71347 | 102.14870 | 33888 ft | 499 kts | 344° |
| 2026-05-05 16:36 | 6.78008 | 102.12858 | 33891 ft | 499 kts | 344° |
| 2026-05-05 16:37 | 6.84626 | 102.10858 | 33890 ft | 499 kts | 344° |
| 2026-05-05 16:37 | 6.91293 | 102.08842 | 33886 ft | 499 kts | 344° |
| 2026-05-05 16:38 | 6.97946 | 102.06830 | 33888 ft | 499 kts | 344° |
| 2026-05-05 16:38 | 7.03478 | 102.05156 | 33888 ft | 499 kts | 344° |
| 2026-05-05 16:39 | 7.11207 | 102.02818 | 33885 ft | 498 kts | 344° |
| 2026-05-05 16:39 | 7.17848 | 102.00807 | 33891 ft | 498 kts | 344° |
| 2026-05-05 16:40 | 7.23374 | 101.99134 | 33887 ft | 498 kts | 344° |
| 2026-05-05 16:40 | 7.31143 | 101.96782 | 33888 ft | 499 kts | 344° |
| 2026-05-05 16:41 | 7.36669 | 101.95107 | 33885 ft | 498 kts | 344° |
| 2026-05-05 16:41 | 7.44400 | 101.92764 | 33884 ft | 499 kts | 344° |
| 2026-05-05 16:42 | 7.51046 | 101.90749 | 33884 ft | 499 kts | 344° |
| 2026-05-05 16:42 | 7.56582 | 101.89070 | 33883 ft | 499 kts | 344° |
| 2026-05-05 16:43 | 7.63243 | 101.87050 | 33884 ft | 498 kts | 344° |
| 2026-05-05 16:43 | 7.69890 | 101.85033 | 33885 ft | 498 kts | 344° |
| 2026-05-05 16:44 | 7.76496 | 101.83027 | 33886 ft | 498 kts | 344° |
| 2026-05-05 16:44 | 7.83115 | 101.81018 | 33887 ft | 498 kts | 344° |
| 2026-05-05 16:45 | 7.89750 | 101.79002 | 33888 ft | 498 kts | 344° |
| 2026-05-05 16:45 | 7.96404 | 101.76980 | 33887 ft | 498 kts | 344° |
| 2026-05-05 16:46 | 8.03012 | 101.74971 | 33889 ft | 497 kts | 344° |
| 2026-05-05 16:46 | 8.09651 | 101.73021 | 33885 ft | 497 kts | 345° |
| 2026-05-05 16:47 | 8.16324 | 101.71142 | 33888 ft | 497 kts | 346° |
| 2026-05-05 16:47 | 8.22990 | 101.69259 | 33885 ft | 497 kts | 345° |
| 2026-05-05 16:48 | 8.29651 | 101.67364 | 33885 ft | 497 kts | 345° |
| 2026-05-05 16:48 | 8.36317 | 101.65462 | 33886 ft | 497 kts | 345° |
| 2026-05-05 16:49 | 8.42954 | 101.63566 | 33888 ft | 497 kts | 345° |
| 2026-05-05 16:49 | 8.49562 | 101.61678 | 33887 ft | 497 kts | 345° |
| 2026-05-05 16:50 | 8.56223 | 101.59775 | 33887 ft | 496 kts | 345° |
| 2026-05-05 16:50 | 8.62871 | 101.57877 | 33890 ft | 496 kts | 345° |
| 2026-05-05 16:51 | 8.69517 | 101.55976 | 33889 ft | 495 kts | 345° |
| 2026-05-05 16:51 | 8.76141 | 101.54082 | 33887 ft | 495 kts | 345° |
| 2026-05-05 16:52 | 8.82765 | 101.52186 | 33889 ft | 496 kts | 345° |
| 2026-05-05 16:52 | 8.89419 | 101.50283 | 33891 ft | 496 kts | 345° |
| 2026-05-05 16:53 | 8.96070 | 101.48382 | 33890 ft | 496 kts | 345° |
| 2026-05-05 16:53 | 9.02719 | 101.46487 | 33894 ft | 496 kts | 345° |
| 2026-05-05 16:54 | 9.09358 | 101.44595 | 33894 ft | 496 kts | 345° |
| 2026-05-05 16:54 | 9.16001 | 101.42698 | 33892 ft | 496 kts | 345° |
| 2026-05-05 16:55 | 9.22615 | 101.40809 | 33896 ft | 497 kts | 345° |
| 2026-05-05 16:55 | 9.29279 | 101.38904 | 33891 ft | 497 kts | 345° |
| 2026-05-05 16:56 | 9.35942 | 101.37000 | 33892 ft | 497 kts | 345° |
| 2026-05-05 16:56 | 9.42605 | 101.35095 | 33895 ft | 498 kts | 345° |
| 2026-05-05 16:57 | 9.49235 | 101.33198 | 33894 ft | 498 kts | 345° |
| 2026-05-05 16:57 | 9.55897 | 101.31291 | 33890 ft | 498 kts | 345° |
| 2026-05-05 16:58 | 9.62563 | 101.29382 | 33891 ft | 498 kts | 345° |
| 2026-05-05 16:58 | 9.69236 | 101.27471 | 33897 ft | 498 kts | 345° |
| 2026-05-05 16:59 | 9.75914 | 101.25558 | 33897 ft | 498 kts | 345° |
| 2026-05-05 16:59 | 9.82544 | 101.23657 | 33895 ft | 498 kts | 345° |
| 2026-05-05 17:00 | 9.89225 | 101.21741 | 33891 ft | 498 kts | 345° |
| 2026-05-05 17:00 | 9.95888 | 101.19829 | 33895 ft | 498 kts | 345° |
| 2026-05-05 17:01 | 10.02523 | 101.17924 | 33894 ft | 498 kts | 345° |
| 2026-05-05 17:01 | 10.09202 | 101.16006 | 33895 ft | 498 kts | 345° |
| 2026-05-05 17:02 | 10.15864 | 101.14092 | 33899 ft | 497 kts | 345° |
| 2026-05-05 17:02 | 10.22523 | 101.12178 | 33893 ft | 497 kts | 345° |
| 2026-05-05 17:03 | 10.29184 | 101.10258 | 33897 ft | 497 kts | 345° |
| 2026-05-05 17:03 | 10.35828 | 101.08338 | 33901 ft | 497 kts | 345° |
| 2026-05-05 17:04 | 10.42484 | 101.06414 | 33897 ft | 497 kts | 345° |
| 2026-05-05 17:05 | 10.62787 | 101.00543 | 33898 ft | 497 kts | 345° |
| 2026-05-05 17:06 | 10.69441 | 100.98617 | 33898 ft | 497 kts | 345° |
| 2026-05-05 17:06 | 10.76099 | 100.96688 | 33895 ft | 497 kts | 345° |
| 2026-05-05 17:07 | 10.82756 | 100.94760 | 33895 ft | 497 kts | 345° |
| 2026-05-05 17:07 | 10.89397 | 100.92835 | 33897 ft | 496 kts | 344° |
| 2026-05-05 17:08 | 10.95993 | 100.90921 | 33898 ft | 497 kts | 344° |
| 2026-05-05 17:08 | 11.02640 | 100.88975 | 33899 ft | 496 kts | 343° |
| 2026-05-05 17:09 | 11.09249 | 100.86904 | 33896 ft | 496 kts | 343° |
| 2026-05-05 17:09 | 11.15836 | 100.84805 | 33898 ft | 496 kts | 343° |
| 2026-05-05 17:10 | 11.22427 | 100.82720 | 33896 ft | 496 kts | 343° |
| 2026-05-05 17:10 | 11.29029 | 100.80643 | 33892 ft | 496 kts | 343° |
| 2026-05-05 17:11 | 11.35630 | 100.78568 | 33893 ft | 496 kts | 343° |
| 2026-05-05 17:11 | 11.42203 | 100.76500 | 33891 ft | 496 kts | 343° |
| 2026-05-05 17:12 | 11.47696 | 100.74771 | 33894 ft | 496 kts | 342° |
| 2026-05-05 17:12 | 11.55390 | 100.72347 | 33894 ft | 496 kts | 342° |
| 2026-05-05 17:13 | 11.60905 | 100.70608 | 33897 ft | 496 kts | 342° |
| 2026-05-05 17:13 | 11.67511 | 100.68525 | 33897 ft | 496 kts | 342° |
| 2026-05-05 17:14 | 11.72547 | 100.66936 | 33897 ft | 497 kts | 342° |
| 2026-05-05 17:14 | 11.78777 | 100.64970 | 33895 ft | 497 kts | 342° |
| 2026-05-05 17:15 | 11.85352 | 100.62894 | 33892 ft | 498 kts | 342° |
| 2026-05-05 17:15 | 11.91969 | 100.60803 | 33894 ft | 498 kts | 342° |
| 2026-05-05 17:16 | 11.98632 | 100.58856 | 33886 ft | 499 kts | 348° |
| 2026-05-05 17:16 | 12.05522 | 100.58086 | 33890 ft | 499 kts | 360° |
| 2026-05-05 17:17 | 12.12452 | 100.58156 | 33881 ft | 497 kts | 0° |
| 2026-05-05 17:17 | 12.15904 | 100.58182 | 33718 ft | 495 kts | 360° |
| 2026-05-05 17:17 | 12.19352 | 100.58197 | 33425 ft | 496 kts | 359° |
| 2026-05-05 17:18 | 12.22811 | 100.58204 | 33120 ft | 497 kts | 359° |
| 2026-05-05 17:18 | 12.26254 | 100.58205 | 32910 ft | 495 kts | 359° |
| 2026-05-05 17:18 | 12.29692 | 100.58204 | 32749 ft | 493 kts | 359° |
| 2026-05-05 17:18 | 12.33122 | 100.58203 | 32587 ft | 491 kts | 359° |
| 2026-05-05 17:19 | 12.36533 | 100.58201 | 32412 ft | 489 kts | 359° |
| 2026-05-05 17:19 | 12.39938 | 100.58200 | 32224 ft | 488 kts | 359° |
| 2026-05-05 17:19 | 12.43338 | 100.58200 | 32045 ft | 487 kts | 359° |
| 2026-05-05 17:19 | 12.46714 | 100.58200 | 31833 ft | 481 kts | 359° |
| 2026-05-05 17:20 | 12.50036 | 100.58200 | 31376 ft | 475 kts | 359° |
| 2026-05-05 17:20 | 12.53336 | 100.58200 | 30721 ft | 475 kts | 359° |
| 2026-05-05 17:20 | 12.56606 | 100.58200 | 30115 ft | 475 kts | 359° |
| 2026-05-05 17:20 | 12.59900 | 100.58200 | 29544 ft | 472 kts | 359° |
| 2026-05-05 17:21 | 12.63168 | 100.58200 | 29062 ft | 467 kts | 359° |
| 2026-05-05 17:21 | 12.66406 | 100.58200 | 28607 ft | 462 kts | 359° |
| 2026-05-05 17:21 | 12.69598 | 100.58200 | 28121 ft | 457 kts | 359° |
| 2026-05-05 17:22 | 12.75912 | 100.58200 | 27115 ft | 450 kts | 359° |
| 2026-05-05 17:22 | 12.79028 | 100.58081 | 26604 ft | 446 kts | 350° |
| 2026-05-05 17:22 | 12.81952 | 100.57105 | 26046 ft | 441 kts | 330° |
| 2026-05-05 17:22 | 12.84384 | 100.55295 | 25577 ft | 437 kts | 319° |
| 2026-05-05 17:23 | 12.86705 | 100.53304 | 25114 ft | 433 kts | 321° |
| 2026-05-05 17:23 | 12.89057 | 100.51385 | 24654 ft | 431 kts | 322° |
| 2026-05-05 17:23 | 12.91415 | 100.49501 | 24185 ft | 428 kts | 322° |
| 2026-05-05 17:23 | 12.93758 | 100.47633 | 23770 ft | 425 kts | 322° |
| 2026-05-05 17:24 | 12.96088 | 100.45771 | 23310 ft | 423 kts | 322° |
| 2026-05-05 17:24 | 12.98396 | 100.43922 | 22805 ft | 420 kts | 322° |
| 2026-05-05 17:24 | 13.00690 | 100.42080 | 22327 ft | 417 kts | 322° |
| 2026-05-05 17:24 | 13.02964 | 100.40252 | 21866 ft | 414 kts | 322° |
| 2026-05-05 17:25 | 13.05219 | 100.38438 | 21402 ft | 411 kts | 322° |
| 2026-05-05 17:25 | 13.06708 | 100.37241 | 21113 ft | 409 kts | 322° |
| 2026-05-05 17:25 | 13.09696 | 100.34838 | 20979 ft | 408 kts | 322° |
| 2026-05-05 17:25 | 13.12075 | 100.33278 | 20891 ft | 407 kts | 339° |
| 2026-05-05 17:26 | 13.14825 | 100.32665 | 20901 ft | 407 kts | 359° |
| 2026-05-05 17:26 | 13.17642 | 100.32760 | 20901 ft | 406 kts | 2° |
| 2026-05-05 17:26 | 13.20478 | 100.32831 | 20893 ft | 409 kts | 0° |
| 2026-05-05 17:26 | 13.23316 | 100.32836 | 20881 ft | 406 kts | 0° |
| 2026-05-05 17:27 | 13.26126 | 100.32835 | 20879 ft | 404 kts | 0° |
| 2026-05-05 17:27 | 13.28938 | 100.32844 | 20795 ft | 402 kts | 0° |
| 2026-05-05 17:27 | 13.31735 | 100.32859 | 20443 ft | 402 kts | 0° |
| 2026-05-05 17:27 | 13.34490 | 100.32875 | 20073 ft | 400 kts | 0° |
| 2026-05-05 17:28 | 13.37268 | 100.32892 | 19706 ft | 398 kts | 0° |
| 2026-05-05 17:28 | 13.40020 | 100.32907 | 19341 ft | 395 kts | 0° |
| 2026-05-05 17:28 | 13.42766 | 100.32922 | 18952 ft | 393 kts | 0° |
| 2026-05-05 17:28 | 13.45494 | 100.32854 | 18562 ft | 391 kts | 353° |
| 2026-05-05 17:29 | 13.48151 | 100.32316 | 18215 ft | 389 kts | 345° |
| 2026-05-05 17:29 | 13.50755 | 100.31561 | 17790 ft | 387 kts | 344° |
| 2026-05-05 17:29 | 13.53350 | 100.30813 | 17394 ft | 384 kts | 346° |
| 2026-05-05 17:29 | 13.55932 | 100.30139 | 17026 ft | 383 kts | 347° |
| 2026-05-05 17:30 | 13.58516 | 100.29496 | 16664 ft | 381 kts | 347° |
| 2026-05-05 17:30 | 13.61082 | 100.28866 | 16292 ft | 379 kts | 347° |
| 2026-05-05 17:30 | 13.63643 | 100.28235 | 15937 ft | 377 kts | 347° |
| 2026-05-05 17:30 | 13.66185 | 100.27608 | 15573 ft | 375 kts | 347° |
| 2026-05-05 17:31 | 13.68721 | 100.26981 | 15208 ft | 373 kts | 347° |
| 2026-05-05 17:31 | 13.71243 | 100.26356 | 14855 ft | 371 kts | 347° |
| 2026-05-05 17:31 | 13.73724 | 100.25844 | 14503 ft | 368 kts | 357° |
| 2026-05-05 17:31 | 13.76260 | 100.26216 | 14147 ft | 364 kts | 22° |
| 2026-05-05 17:32 | 13.78423 | 100.27457 | 13846 ft | 356 kts | 34° |
| 2026-05-05 17:32 | 13.80466 | 100.28804 | 13451 ft | 342 kts | 32° |
| 2026-05-05 17:32 | 13.82450 | 100.30043 | 13096 ft | 326 kts | 32° |
| 2026-05-05 17:32 | 13.84343 | 100.31221 | 12738 ft | 312 kts | 32° |
| 2026-05-05 17:33 | 13.86198 | 100.32381 | 11947 ft | 315 kts | 32° |
| 2026-05-05 17:33 | 13.88120 | 100.33587 | 11144 ft | 329 kts | 32° |
| 2026-05-05 17:33 | 13.90060 | 100.34806 | 10828 ft | 328 kts | 32° |
| 2026-05-05 17:33 | 13.92005 | 100.36027 | 10676 ft | 324 kts | 32° |
| 2026-05-05 17:34 | 13.93917 | 100.37226 | 10480 ft | 317 kts | 32° |
| 2026-05-05 17:34 | 13.95772 | 100.38394 | 10358 ft | 307 kts | 32° |
| 2026-05-05 17:34 | 13.97539 | 100.39503 | 10195 ft | 288 kts | 32° |
| 2026-05-05 17:34 | 13.99195 | 100.40542 | 10076 ft | 267 kts | 32° |
| 2026-05-05 17:35 | 14.00758 | 100.41523 | 10088 ft | 268 kts | 32° |
| 2026-05-05 17:35 | 14.02394 | 100.42552 | 10060 ft | 280 kts | 32° |
| 2026-05-05 17:35 | 14.04072 | 100.43607 | 9966 ft | 282 kts | 32° |
| 2026-05-05 17:35 | 14.05706 | 100.44635 | 9742 ft | 277 kts | 32° |
| 2026-05-05 17:36 | 14.07331 | 100.45657 | 9413 ft | 269 kts | 32° |
| 2026-05-05 17:36 | 14.08914 | 100.46652 | 9108 ft | 270 kts | 32° |
| 2026-05-05 17:36 | 14.10540 | 100.47675 | 8808 ft | 277 kts | 32° |
| 2026-05-05 17:36 | 14.12188 | 100.48711 | 8477 ft | 277 kts | 32° |
| 2026-05-05 17:37 | 14.13813 | 100.49735 | 8140 ft | 269 kts | 32° |
| 2026-05-05 17:37 | 14.14876 | 100.50403 | 7920 ft | 262 kts | 32° |
| 2026-05-05 17:37 | 14.16955 | 100.51712 | 7552 ft | 270 kts | 32° |
| 2026-05-05 17:37 | 14.18567 | 100.52734 | 7284 ft | 273 kts | 35° |
| 2026-05-05 17:38 | 14.19886 | 100.54103 | 6952 ft | 268 kts | 65° |
| 2026-05-05 17:38 | 14.20250 | 100.55920 | 6668 ft | 254 kts | 96° |
| 2026-05-05 17:38 | 14.20004 | 100.57725 | 6425 ft | 259 kts | 98° |
| 2026-05-05 17:38 | 14.19784 | 100.59597 | 6088 ft | 266 kts | 97° |
| 2026-05-05 17:39 | 14.19565 | 100.61483 | 5747 ft | 264 kts | 97° |
| 2026-05-05 17:39 | 14.19335 | 100.63354 | 5439 ft | 263 kts | 98° |
| 2026-05-05 17:39 | 14.18969 | 100.65192 | 5114 ft | 262 kts | 114° |
| 2026-05-05 17:39 | 14.17831 | 100.66597 | 4815 ft | 259 kts | 150° |
| 2026-05-05 17:40 | 14.16145 | 100.67242 | 4604 ft | 259 kts | 166° |
| 2026-05-05 17:40 | 14.14421 | 100.67717 | 4451 ft | 254 kts | 164° |
| 2026-05-05 17:40 | 14.12732 | 100.68207 | 4182 ft | 249 kts | 164° |
| 2026-05-05 17:40 | 14.11074 | 100.68684 | 3905 ft | 246 kts | 164° |
| 2026-05-05 17:41 | 14.09455 | 100.69145 | 3617 ft | 243 kts | 164° |
| 2026-05-05 17:41 | 14.07821 | 100.69443 | 3256 ft | 235 kts | 184° |
| 2026-05-05 17:41 | 14.06339 | 100.68941 | 3122 ft | 217 kts | 209° |
| 2026-05-05 17:41 | 14.05041 | 100.68191 | 2753 ft | 211 kts | 206° |
| 2026-05-05 17:42 | 14.03784 | 100.67522 | 2660 ft | 202 kts | 207° |
| 2026-05-05 17:42 | 14.02563 | 100.66843 | 2597 ft | 192 kts | 207° |
| 2026-05-05 17:42 | 14.01446 | 100.66213 | 2539 ft | 179 kts | 208° |
| 2026-05-05 17:42 | 14.00357 | 100.65612 | 2472 ft | 177 kts | 206° |
| 2026-05-05 17:43 | 13.99261 | 100.65036 | 2245 ft | 176 kts | 207° |
| 2026-05-05 17:43 | 13.98192 | 100.64429 | 1921 ft | 176 kts | 210° |
| 2026-05-05 17:43 | 13.97252 | 100.63851 | 1390 ft | 176 kts | 208° |
| 2026-05-05 17:44 | 13.96368 | 100.63371 | 918 ft | 175 kts | 209° |
| 2026-05-05 17:44 | 13.95321 | 100.62740 | 592 ft | 171 kts | 210° |
| 2026-05-05 17:44 | 13.94345 | 100.62191 | 248 ft | 154 kts | 207° |
| 2026-05-05 17:44 | 13.93421 | 100.61677 | 57 ft | 143 kts | 207° |
| 2026-05-05 17:45 | 13.92673 | 100.61280 | 23 ft | 98 kts | 209° |
| 2026-05-05 17:45 | 13.92277 | 100.61047 | 24 ft | 38 kts | 212° |
| 2026-05-05 17:45 | 13.92070 | 100.60925 | 26 ft | 33 kts | 208° |
| 2026-05-05 17:45 | 13.91874 | 100.60811 | 25 ft | 34 kts | 210° |
| 2026-05-05 17:46 | 13.91754 | 100.60724 | 21 ft | 14 kts | 261° |
| 2026-05-05 17:46 | 13.91828 | 100.60669 | 22 ft | 14 kts | 315° |
| 2026-05-05 17:46 | 13.91846 | 100.60610 | 22 ft | 9 kts | 272° |
| 2026-05-05 17:46 | 13.91850 | 100.60549 | 24 ft | 9 kts | 268° |
| 2026-05-05 17:47 | 13.91810 | 100.60505 | 25 ft | 9 kts | 212° |
| 2026-05-05 17:47 | 13.91757 | 100.60474 | 24 ft | 9 kts | 209° |
| 2026-05-05 17:47 | 13.91703 | 100.60444 | 23 ft | 9 kts | 209° |
| 2026-05-05 17:47 | 13.91644 | 100.60410 | 25 ft | 11 kts | 209° |
| 2026-05-05 17:48 | 13.91570 | 100.60367 | 25 ft | 13 kts | 209° |
| 2026-05-05 17:48 | 13.91483 | 100.60319 | 24 ft | 15 kts | 208° |
| 2026-05-05 17:48 | 13.91390 | 100.60268 | 24 ft | 15 kts | 207° |
| 2026-05-05 17:48 | 13.91297 | 100.60216 | 24 ft | 15 kts | 209° |
| 2026-05-05 17:49 | 13.91205 | 100.60164 | 26 ft | 15 kts | 208° |
| 2026-05-05 17:49 | 13.91112 | 100.60112 | 25 ft | 15 kts | 207° |
| 2026-05-05 17:49 | 13.91024 | 100.60053 | 26 ft | 15 kts | 220° |
| 2026-05-05 17:49 | 13.90942 | 100.59987 | 24 ft | 15 kts | 211° |
| 2026-05-05 17:50 | 13.90872 | 100.59909 | 23 ft | 14 kts | 239° |
| 2026-05-05 17:50 | 13.90808 | 100.59847 | 23 ft | 11 kts | 206° |
| 2026-05-05 17:50 | 13.90738 | 100.59809 | 21 ft | 11 kts | 209° |
| 2026-05-05 17:50 | 13.90668 | 100.59769 | 25 ft | 11 kts | 208° |
| 2026-05-05 17:51 | 13.90598 | 100.59730 | 24 ft | 11 kts | 208° |
| 2026-05-05 17:51 | 13.90527 | 100.59691 | 25 ft | 11 kts | 208° |
| 2026-05-05 17:51 | 13.90457 | 100.59652 | 22 ft | 11 kts | 208° |
| 2026-05-05 17:51 | 13.90388 | 100.59612 | 24 ft | 11 kts | 209° |
| 2026-05-05 17:52 | 13.90348 | 100.59600 | 25 ft | 3 kts | 158° |
| 2026-05-05 17:52 | 13.90344 | 100.59619 | 25 ft | 3 kts | 98° |
| 2026-05-05 17:52 | 13.90340 | 100.59640 | 25 ft | 3 kts | 109° |
| 2026-05-05 17:52 | 13.90329 | 100.59660 | 24 ft | 3 kts | 119° |
| 2026-05-05 17:53 | 13.90320 | 100.59677 | 24 ft | 1 kts | 118° |